Time;durP1;ratioP1;P1;durP2;ratioP2;P2;SDS_P1;SDS_P2;PMS_P1;PMS_P2;Temp;Humidity;BMP_temperature;BMP_pressure;BME280_temperature;BME280_humidity;BME280_pressure;Samples;Min_cycle;Max_cycle;Signal;HPM_P1;HPM_P2
2023/07/01 00:01:36;;;;;;;9.52;2.60;;;18.90;98.10;;;;;;4876250;29;20207;-82
2023/07/01 00:04:02;;;;;;;12.00;2.60;;;18.90;98.10;;;;;;4899191;29;20192;-81
2023/07/01 00:06:28;;;;;;;7.85;2.85;;;18.90;98.00;;;;;;4919459;29;20222;-81
2023/07/01 00:08:54;;;;;;;12.10;3.15;;;18.90;98.00;;;;;;4906290;29;20192;-81
2023/07/01 00:11:20;;;;;;;19.00;3.15;;;18.90;97.90;;;;;;4890876;29;20752;-81
2023/07/01 00:13:47;;;;;;;11.93;2.88;;;18.90;97.90;;;;;;4931554;29;20270;-80
2023/07/01 00:16:15;;;;;;;7.10;2.75;;;18.90;97.90;;;;;;4935135;29;20183;-81
2023/07/01 00:18:42;;;;;;;13.15;2.92;;;18.90;97.90;;;;;;4916477;29;20234;-81
2023/07/01 00:21:08;;;;;;;7.07;2.50;;;18.90;97.90;;;;;;4925185;29;20207;-80
2023/07/01 00:23:34;;;;;;;8.07;2.80;;;18.90;97.90;;;;;;4932535;29;20191;-81
2023/07/01 00:26:00;;;;;;;6.72;2.90;;;18.90;97.80;;;;;;4919140;29;20266;-81
2023/07/01 00:28:26;;;;;;;7.28;2.60;;;18.90;97.80;;;;;;4918713;29;20176;-81
2023/07/01 00:30:52;;;;;;;8.50;2.65;;;18.90;97.80;;;;;;4936265;29;20382;-81
2023/07/01 00:33:18;;;;;;;7.82;2.70;;;18.90;97.80;;;;;;4906430;29;20263;-80
2023/07/01 00:35:43;;;;;;;10.80;2.55;;;18.90;97.80;;;;;;4913117;29;20591;-81
2023/07/01 00:38:10;;;;;;;11.25;2.78;;;18.90;97.90;;;;;;4919045;29;20258;-81
2023/07/01 00:40:35;;;;;;;6.93;2.72;;;18.90;97.90;;;;;;4936159;29;20650;-82
2023/07/01 00:43:01;;;;;;;10.90;3.13;;;18.90;97.90;;;;;;4922012;29;20604;-81
2023/07/01 00:45:27;;;;;;;11.70;2.75;;;18.90;98.00;;;;;;4934541;29;20191;-81
2023/07/01 00:47:53;;;;;;;15.57;3.00;;;18.90;98.00;;;;;;4904477;29;20222;-81
2023/07/01 00:50:19;;;;;;;12.27;2.65;;;18.80;98.10;;;;;;4928481;29;20245;-80
2023/07/01 00:52:46;;;;;;;5.78;2.30;;;18.80;98.10;;;;;;4933151;29;20199;-81
2023/07/01 00:55:12;;;;;;;11.65;2.78;;;18.80;98.20;;;;;;4941404;29;20240;-81
2023/07/01 00:57:39;;;;;;;7.72;2.70;;;18.80;98.30;;;;;;4913163;29;20191;-85
2023/07/01 01:00:10;;;;;;;17.65;2.60;;;18.80;98.40;;;;;;4897202;29;20192;-81
2023/07/01 01:02:45;;;;;;;10.05;2.63;;;18.80;98.50;;;;;;4902407;29;20195;-81
2023/07/01 01:05:17;;;;;;;13.07;2.50;;;18.80;98.70;;;;;;4902961;29;20298;-84
2023/07/01 01:08:28;;;;;;;7.93;2.65;;;18.80;98.80;;;;;;4920162;29;20656;-81
2023/07/01 01:10:56;;;;;;;9.57;2.78;;;18.80;98.90;;;;;;4887780;29;20355;-82
2023/07/01 01:13:25;;;;;;;7.35;2.78;;;18.70;99.10;;;;;;4929069;29;20180;-82
2023/07/01 01:15:51;;;;;;;6.40;2.40;;;18.70;99.20;;;;;;4916858;29;20176;-81
2023/07/01 01:18:21;;;;;;;9.70;2.58;;;18.70;99.30;;;;;;4906917;29;20274;-81
2023/07/01 01:20:50;;;;;;;6.28;2.28;;;18.70;99.50;;;;;;4918628;29;20223;-82
2023/07/01 01:23:26;;;;;;;7.70;2.42;;;18.70;99.60;;;;;;4927785;29;20181;-81
2023/07/01 01:26:19;;;;;;;8.30;2.72;;;18.70;99.80;;;;;;4915434;29;20186;-82
2023/07/01 01:28:46;;;;;;;11.15;2.65;;;18.60;99.80;;;;;;4917861;29;20187;-83
2023/07/01 01:31:12;;;;;;;8.95;2.80;;;18.70;99.90;;;;;;4918345;29;20211;-82
2023/07/01 01:33:40;;;;;;;11.68;3.15;;;18.70;99.90;;;;;;4910706;29;20215;-82
2023/07/01 01:36:18;;;;;;;10.82;2.83;;;18.70;99.90;;;;;;4904646;29;20641;-82
2023/07/01 01:38:44;;;;;;;9.15;2.90;;;18.70;99.90;;;;;;4911508;29;20793;-85
2023/07/01 01:41:21;;;;;;;9.75;3.10;;;18.70;99.90;;;;;;4938826;29;20307;-83
2023/07/01 01:43:53;;;;;;;9.73;3.13;;;18.70;99.90;;;;;;4920791;29;20246;-82
2023/07/01 01:46:21;;;;;;;12.57;3.28;;;18.60;99.90;;;;;;4918513;29;20732;-82
2023/07/01 01:48:47;;;;;;;15.48;2.95;;;18.60;99.90;;;;;;4933927;29;20187;-83
2023/07/01 01:51:14;;;;;;;9.88;2.88;;;18.60;99.90;;;;;;4918323;29;20716;-83
2023/07/01 01:53:42;;;;;;;7.20;3.03;;;18.60;99.90;;;;;;4930762;29;20179;-83
2023/07/01 01:56:10;;;;;;;14.07;3.00;;;18.60;99.90;;;;;;4886479;29;20609;-82
2023/07/01 01:58:36;;;;;;;10.43;3.25;;;18.50;99.90;;;;;;4928150;29;20201;-83
2023/07/01 02:01:02;;;;;;;9.73;3.13;;;18.50;99.90;;;;;;4915969;29;20674;-83
2023/07/01 02:03:28;;;;;;;5.97;3.28;;;18.40;99.90;;;;;;4895950;29;20183;-84
2023/07/01 02:05:54;;;;;;;12.13;3.65;;;18.40;99.90;;;;;;4920206;29;20198;-83
2023/07/01 02:08:21;;;;;;;10.20;3.60;;;18.30;99.90;;;;;;4917559;29;20218;-83
2023/07/01 02:10:47;;;;;;;10.15;3.47;;;18.30;99.90;;;;;;4904686;29;20203;-82
2023/07/01 02:13:12;;;;;;;9.77;3.67;;;18.20;99.90;;;;;;4894837;29;20211;-83
2023/07/01 02:15:38;;;;;;;6.97;3.35;;;18.20;99.90;;;;;;4904572;29;20215;-82
2023/07/01 02:18:04;;;;;;;11.13;3.38;;;18.20;99.90;;;;;;4926375;29;20589;-83
2023/07/01 02:20:30;;;;;;;10.82;3.78;;;18.20;99.90;;;;;;4933997;29;20210;-83
2023/07/01 02:22:56;;;;;;;12.95;3.42;;;18.10;99.90;;;;;;4932026;29;20331;-82
2023/07/01 02:25:22;;;;;;;6.30;3.60;;;18.10;99.90;;;;;;4902460;29;20271;-82
2023/07/01 02:27:48;;;;;;;9.02;3.60;;;18.10;99.90;;;;;;4889056;29;20290;-82
2023/07/01 02:30:14;;;;;;;8.25;3.45;;;18.00;99.90;;;;;;4937925;29;20608;-81
2023/07/01 02:32:39;;;;;;;11.50;3.42;;;18.00;99.90;;;;;;4920923;29;20215;-80
2023/07/01 02:35:06;;;;;;;7.63;3.60;;;17.90;99.90;;;;;;4926210;29;20216;-81
2023/07/01 02:37:31;;;;;;;8.25;3.20;;;17.90;99.90;;;;;;4919823;29;20187;-83
2023/07/01 02:39:57;;;;;;;10.93;3.47;;;17.90;99.90;;;;;;4937536;29;20231;-82
2023/07/01 02:42:23;;;;;;;12.50;4.00;;;17.90;99.90;;;;;;4935839;29;20650;-81
2023/07/01 02:44:49;;;;;;;14.35;4.18;;;17.90;99.90;;;;;;4886596;29;20200;-81
2023/07/01 02:47:16;;;;;;;9.98;3.90;;;17.90;99.90;;;;;;4916607;29;20686;-83
2023/07/01 02:49:42;;;;;;;6.78;3.70;;;17.90;99.90;;;;;;4937098;29;20536;-82
2023/07/01 02:52:10;;;;;;;8.75;4.40;;;17.90;99.90;;;;;;4903528;29;20210;-81
2023/07/01 02:54:39;;;;;;;14.38;4.20;;;17.90;99.90;;;;;;4918089;29;20184;-81
2023/07/01 02:57:10;;;;;;;6.38;4.00;;;17.90;99.90;;;;;;4903259;29;20231;-81
2023/07/01 02:59:37;;;;;;;12.05;4.40;;;17.90;99.90;;;;;;4918782;29;20218;-81
2023/07/01 03:02:06;;;;;;;11.15;4.05;;;17.90;99.90;;;;;;4893484;29;20188;-83
2023/07/01 03:04:35;;;;;;;12.00;5.05;;;17.90;99.90;;;;;;4920048;29;20187;-82
2023/07/01 03:07:01;;;;;;;8.57;4.60;;;17.90;99.90;;;;;;4921165;29;20212;-81
2023/07/01 03:09:27;;;;;;;11.82;5.10;;;17.90;99.90;;;;;;4912056;29;20184;-80
2023/07/01 03:11:53;;;;;;;8.73;4.93;;;18.00;99.90;;;;;;4918251;29;20320;-81
2023/07/01 03:14:20;;;;;;;9.38;4.82;;;17.90;99.90;;;;;;4936347;29;20183;-84
2023/07/01 03:16:46;;;;;;;12.25;5.13;;;17.90;99.90;;;;;;4903014;29;20188;-83
2023/07/01 03:19:13;;;;;;;11.10;4.93;;;17.90;99.90;;;;;;4914449;29;20191;-82
2023/07/01 03:21:40;;;;;;;9.40;5.70;;;18.00;99.90;;;;;;4907848;29;20192;-83
2023/07/01 03:24:06;;;;;;;11.52;5.57;;;18.00;99.90;;;;;;4916590;29;20571;-82
2023/07/01 03:26:32;;;;;;;12.63;5.70;;;17.90;99.90;;;;;;4900423;29;20216;-82
2023/07/01 03:28:58;;;;;;;13.07;6.30;;;17.90;99.90;;;;;;4896706;29;20183;-82
2023/07/01 03:31:24;;;;;;;15.90;6.07;;;17.90;99.90;;;;;;4903827;29;20210;-83
2023/07/01 03:33:50;;;;;;;9.68;6.13;;;17.80;99.90;;;;;;4926281;29;20241;-85
2023/07/01 03:36:16;;;;;;;10.82;5.70;;;17.80;99.90;;;;;;4923923;29;20194;-83
2023/07/01 03:38:42;;;;;;;11.18;5.50;;;17.80;99.90;;;;;;4935682;29;20186;-82
2023/07/01 03:41:08;;;;;;;13.35;6.10;;;17.70;99.90;;;;;;4889513;29;20228;-82
2023/07/01 03:43:34;;;;;;;14.80;6.38;;;17.70;99.90;;;;;;4897194;29;20208;-82
2023/07/01 03:46:00;;;;;;;9.55;5.82;;;17.70;99.90;;;;;;4891701;29;20193;-83
2023/07/01 03:48:27;;;;;;;11.13;5.88;;;17.60;99.90;;;;;;4896792;29;20209;-83
2023/07/01 03:50:53;;;;;;;10.70;5.60;;;17.60;99.90;;;;;;4883331;29;20227;-83
2023/07/01 03:53:19;;;;;;;12.75;5.93;;;17.60;99.90;;;;;;4896511;29;20180;-84
2023/07/01 03:55:45;;;;;;;12.18;5.57;;;17.50;99.90;;;;;;4912244;29;20200;-83
2023/07/01 03:58:11;;;;;;;8.50;5.50;;;17.50;99.90;;;;;;4881658;29;20188;-82
2023/07/01 04:00:38;;;;;;;13.77;5.90;;;17.50;99.90;;;;;;4896878;29;20187;-84
2023/07/01 04:03:08;;;;;;;12.23;5.50;;;17.50;99.90;;;;;;4896314;29;20227;-83
2023/07/01 04:05:35;;;;;;;9.85;5.00;;;17.50;99.90;;;;;;4896868;29;20193;-82
2023/07/01 04:08:02;;;;;;;14.32;5.20;;;17.50;99.90;;;;;;4897279;29;20212;-82
2023/07/01 04:10:28;;;;;;;10.07;5.63;;;17.50;99.90;;;;;;4895336;29;20637;-83
2023/07/01 04:12:54;;;;;;;16.38;5.50;;;17.50;99.90;;;;;;4890859;29;20185;-82
2023/07/01 04:15:19;;;;;;;9.15;5.00;;;17.50;99.90;;;;;;4893074;29;20216;-82
2023/07/01 04:17:48;;;;;;;8.77;4.88;;;17.50;99.90;;;;;;4894377;29;20674;-83
2023/07/01 04:20:14;;;;;;;9.55;4.82;;;17.50;99.90;;;;;;4890028;29;20185;-83
2023/07/01 04:22:40;;;;;;;9.73;4.88;;;17.50;99.90;;;;;;4896444;29;20195;-84
2023/07/01 04:25:07;;;;;;;14.75;5.00;;;17.50;99.90;;;;;;4896688;29;20180;-83
2023/07/01 04:27:34;;;;;;;9.98;4.78;;;17.50;99.90;;;;;;4895397;29;20217;-84
2023/07/01 04:30:01;;;;;;;9.23;4.40;;;17.50;99.90;;;;;;4892332;29;20527;-82
2023/07/01 04:32:28;;;;;;;11.80;4.57;;;17.50;99.90;;;;;;4891989;29;20702;-83
2023/07/01 04:34:54;;;;;;;7.90;5.05;;;17.50;99.90;;;;;;4863728;29;20193;-83
2023/07/01 04:37:20;;;;;;;8.30;5.05;;;17.50;99.90;;;;;;4894399;29;20235;-83
2023/07/01 04:39:46;;;;;;;9.35;5.20;;;17.60;99.90;;;;;;4913641;29;20224;-85
2023/07/01 04:42:12;;;;;;;9.52;4.28;;;17.60;99.90;;;;;;4922293;29;20310;-85
2023/07/01 04:44:37;;;;;;;8.32;4.75;;;17.60;99.90;;;;;;4914382;29;20226;-83
2023/07/01 04:47:03;;;;;;;8.45;4.35;;;17.60;99.90;;;;;;4896093;29;20243;-83
2023/07/01 04:49:29;;;;;;;10.27;4.82;;;17.60;99.90;;;;;;4914948;29;20191;-83
2023/07/01 04:51:56;;;;;;;8.80;4.55;;;17.60;99.90;;;;;;4918534;29;20294;-84
2023/07/01 04:54:22;;;;;;;8.70;4.50;;;17.60;99.90;;;;;;4932861;29;20214;-83
2023/07/01 04:56:48;;;;;;;11.35;4.78;;;17.60;99.90;;;;;;4921914;29;20283;-83
2023/07/01 04:59:14;;;;;;;10.40;5.05;;;17.70;99.90;;;;;;4912649;29;20278;-83
2023/07/01 05:01:39;;;;;;;10.45;4.93;;;17.70;99.90;;;;;;4935169;29;20190;-83
2023/07/01 05:04:05;;;;;;;9.88;5.20;;;17.60;99.90;;;;;;4918447;29;20199;-82
2023/07/01 05:06:33;;;;;;;10.07;5.93;;;17.70;99.90;;;;;;4907672;29;20740;-83
2023/07/01 05:08:59;;;;;;;9.38;5.35;;;17.60;99.90;;;;;;4887505;29;20196;-83
2023/07/01 05:11:26;;;;;;;11.02;5.55;;;17.60;99.90;;;;;;4908713;29;20536;-82
2023/07/01 05:13:51;;;;;;;13.57;6.35;;;17.60;99.90;;;;;;4901690;29;20192;-82
2023/07/01 05:16:17;;;;;;;12.43;6.65;;;17.70;99.90;;;;;;4932605;29;20189;-82
2023/07/01 05:18:43;;;;;;;12.85;6.55;;;17.70;99.90;;;;;;4927467;29;20190;-81
2023/07/01 05:21:09;;;;;;;12.77;6.18;;;17.70;99.90;;;;;;4914767;29;20180;-79
2023/07/01 05:23:35;;;;;;;13.55;6.32;;;17.70;99.90;;;;;;4926216;29;20191;-80
2023/07/01 05:26:01;;;;;;;14.93;6.97;;;17.70;99.90;;;;;;4902832;29;20717;-81
2023/07/01 05:28:26;;;;;;;14.27;6.68;;;17.70;99.90;;;;;;4928772;29;20212;-84
2023/07/01 05:30:52;;;;;;;11.23;6.32;;;17.80;99.90;;;;;;4919758;29;20652;-81
2023/07/01 05:33:18;;;;;;;11.00;6.13;;;17.80;99.90;;;;;;4908439;29;20278;-80
2023/07/01 05:35:44;;;;;;;13.20;6.25;;;17.80;99.90;;;;;;4918726;29;20222;-81
2023/07/01 05:38:11;;;;;;;12.02;6.25;;;17.80;99.90;;;;;;4919628;29;20234;-80
2023/07/01 05:40:37;;;;;;;12.43;6.15;;;17.80;99.90;;;;;;4919373;29;20235;-81
2023/07/01 05:43:04;;;;;;;8.82;5.90;;;17.80;99.90;;;;;;4937770;29;20235;-82
2023/07/01 05:45:30;;;;;;;10.63;5.90;;;17.80;99.90;;;;;;4909054;29;20202;-80
2023/07/01 05:47:56;;;;;;;13.80;6.65;;;17.80;99.90;;;;;;4907118;29;20310;-81
2023/07/01 05:50:22;;;;;;;13.48;6.60;;;17.80;99.90;;;;;;4923588;29;20289;-82
2023/07/01 05:52:47;;;;;;;12.50;5.82;;;17.80;99.90;;;;;;4921317;29;20183;-82
2023/07/01 05:55:13;;;;;;;9.20;6.13;;;17.80;99.90;;;;;;4905586;29;20274;-82
2023/07/01 05:57:39;;;;;;;12.27;5.63;;;17.90;99.90;;;;;;4921012;29;20723;-83
2023/07/01 06:00:06;;;;;;;14.75;5.93;;;17.90;99.90;;;;;;4939033;29;20191;-82
2023/07/01 06:02:41;;;;;;;11.10;5.78;;;17.90;99.90;;;;;;4893266;29;20207;-82
2023/07/01 06:05:08;;;;;;;13.93;5.85;;;17.90;99.90;;;;;;4911403;29;20211;-81
2023/07/01 06:07:34;;;;;;;11.60;6.25;;;17.90;99.90;;;;;;4917101;29;20729;-82
2023/07/01 06:10:00;;;;;;;13.68;6.30;;;17.90;99.90;;;;;;4907906;29;20187;-85
2023/07/01 06:12:26;;;;;;;10.93;6.50;;;17.90;99.90;;;;;;4903482;29;20192;-82
2023/07/01 06:14:52;;;;;;;11.38;7.07;;;18.00;99.90;;;;;;4934242;29;20674;-82
2023/07/01 06:17:18;;;;;;;8.95;6.82;;;17.90;99.90;;;;;;4927545;29;20203;-81
2023/07/01 06:19:43;;;;;;;11.45;6.30;;;17.90;99.90;;;;;;4915442;29;20188;-81
2023/07/01 06:22:09;;;;;;;12.88;7.00;;;18.00;99.90;;;;;;4928134;29;20199;-83
2023/07/01 06:24:35;;;;;;;12.02;6.80;;;17.90;99.90;;;;;;4936169;29;20281;-81
2023/07/01 06:27:00;;;;;;;9.10;7.18;;;17.90;99.90;;;;;;4911499;29;20215;-81
2023/07/01 06:29:27;;;;;;;12.52;7.75;;;17.90;99.90;;;;;;4932820;29;20213;-81
2023/07/01 06:31:52;;;;;;;17.55;7.90;;;17.90;99.90;;;;;;4912045;29;20191;-80
2023/07/01 06:34:18;;;;;;;10.20;7.18;;;17.90;99.90;;;;;;4888567;29;20188;-81
2023/07/01 06:36:44;;;;;;;10.63;7.70;;;17.90;99.90;;;;;;4905829;29;20195;-80
2023/07/01 06:39:12;;;;;;;16.00;8.10;;;17.90;99.90;;;;;;4925969;29;20284;-82
2023/07/01 06:41:38;;;;;;;12.57;7.45;;;17.90;99.90;;;;;;4931040;29;20253;-80
2023/07/01 06:44:06;;;;;;;9.48;7.22;;;17.90;99.90;;;;;;4916584;29;20183;-83
2023/07/01 06:46:32;;;;;;;13.68;7.53;;;17.90;99.90;;;;;;4914682;29;20585;-80
2023/07/01 06:48:58;;;;;;;11.65;7.82;;;17.90;99.90;;;;;;4931609;29;20754;-81
2023/07/01 06:51:24;;;;;;;11.63;7.50;;;17.90;99.90;;;;;;4918117;29;20846;-81
2023/07/01 06:53:49;;;;;;;9.07;7.65;;;17.90;99.90;;;;;;4898985;29;20219;-80
2023/07/01 06:56:15;;;;;;;11.50;7.53;;;17.90;99.90;;;;;;4928848;29;20561;-81
2023/07/01 06:58:41;;;;;;;10.52;7.40;;;17.90;99.90;;;;;;4932253;29;20640;-85
2023/07/01 07:01:07;;;;;;;10.35;7.82;;;17.90;99.90;;;;;;4934244;29;20191;-83
2023/07/01 07:03:33;;;;;;;14.15;7.75;;;17.90;99.90;;;;;;4930576;29;20187;-80
2023/07/01 07:06:00;;;;;;;13.52;7.60;;;17.90;99.90;;;;;;4923956;29;20223;-79
2023/07/01 07:08:26;;;;;;;11.57;8.00;;;17.90;99.90;;;;;;4919705;29;20179;-81
2023/07/01 07:10:52;;;;;;;11.05;7.43;;;17.90;99.90;;;;;;4887681;29;20188;-80
2023/07/01 07:13:18;;;;;;;12.80;6.88;;;17.90;99.90;;;;;;4923152;29;20181;-79
2023/07/01 07:15:44;;;;;;;8.77;7.07;;;17.90;99.90;;;;;;4929472;29;20198;-80
2023/07/01 07:18:10;;;;;;;10.63;6.88;;;17.90;99.90;;;;;;4918917;29;20195;-83
2023/07/01 07:20:40;;;;;;;8.55;6.65;;;17.90;99.90;;;;;;4904312;29;20187;-82
2023/07/01 07:23:06;;;;;;;9.60;6.40;;;17.90;99.90;;;;;;4920125;29;20191;-85
2023/07/01 07:25:35;;;;;;;9.32;6.95;;;17.90;99.90;;;;;;4917130;29;20213;-82
2023/07/01 07:28:04;;;;;;;9.35;7.10;;;17.90;99.90;;;;;;4919044;29;20219;-84
2023/07/01 07:30:30;;;;;;;9.65;6.80;;;17.90;99.90;;;;;;4932213;29;20254;-85
2023/07/01 07:32:56;;;;;;;8.45;6.43;;;17.90;99.90;;;;;;4911432;29;20656;-81
2023/07/01 07:35:22;;;;;;;10.52;6.88;;;18.00;99.90;;;;;;4915902;29;20239;-82
2023/07/01 07:37:49;;;;;;;9.25;6.43;;;18.00;99.90;;;;;;4935010;29;20215;-81
2023/07/01 07:40:15;;;;;;;8.52;6.45;;;18.00;99.90;;;;;;4912707;29;20560;-81
2023/07/01 07:42:44;;;;;;;7.65;6.40;;;18.00;99.90;;;;;;4934485;29;20219;-82
2023/07/01 07:45:10;;;;;;;6.82;5.93;;;18.00;99.90;;;;;;4914685;29;20187;-81
2023/07/01 07:47:36;;;;;;;9.50;6.70;;;18.00;99.90;;;;;;4932871;29;20225;-81
2023/07/01 07:50:02;;;;;;;6.60;6.00;;;18.00;99.90;;;;;;4927184;29;20184;-80
2023/07/01 07:52:28;;;;;;;6.82;5.97;;;18.00;99.90;;;;;;4932533;29;20206;-78
2023/07/01 07:54:54;;;;;;;6.38;5.70;;;18.10;99.90;;;;;;4923516;29;20198;-81
2023/07/01 07:57:20;;;;;;;6.80;5.22;;;18.10;99.90;;;;;;4900356;29;20175;-80
2023/07/01 07:59:46;;;;;;;6.20;5.60;;;18.10;99.90;;;;;;4934898;29;21744;-80
2023/07/01 08:02:12;;;;;;;8.27;5.57;;;18.10;99.90;;;;;;4936225;29;20194;-80
2023/07/01 08:04:38;;;;;;;6.60;5.72;;;18.10;99.90;;;;;;4919424;29;20191;-79
2023/07/01 08:07:04;;;;;;;6.25;5.40;;;18.20;99.90;;;;;;4903569;29;20222;-80
2023/07/01 08:09:31;;;;;;;6.18;5.55;;;18.20;99.90;;;;;;4928818;29;20191;-79
2023/07/01 08:12:00;;;;;;;5.93;5.32;;;18.30;99.90;;;;;;4903004;29;20243;-85
2023/07/01 08:14:26;;;;;;;6.00;5.40;;;18.30;99.90;;;;;;4899594;29;20270;-80
2023/07/01 08:16:56;;;;;;;7.53;5.00;;;18.40;99.90;;;;;;4916916;29;20184;-80
2023/07/01 08:19:22;;;;;;;5.57;5.07;;;18.40;99.90;;;;;;4930130;29;20187;-81
2023/07/01 08:21:47;;;;;;;5.53;5.03;;;18.40;99.90;;;;;;4928460;29;20192;-80
2023/07/01 08:24:14;;;;;;;6.60;5.63;;;18.40;99.90;;;;;;4908318;29;20761;-82
2023/07/01 08:26:40;;;;;;;6.45;5.57;;;18.40;99.90;;;;;;4919551;29;20301;-81
2023/07/01 08:29:07;;;;;;;6.40;5.68;;;18.50;99.90;;;;;;4893236;29;20287;-81
2023/07/01 08:31:33;;;;;;;8.68;5.78;;;18.50;99.90;;;;;;4918241;29;20648;-80
2023/07/01 08:33:59;;;;;;;6.60;5.60;;;18.50;99.90;;;;;;4895399;29;20215;-81
2023/07/01 08:36:25;;;;;;;6.00;5.40;;;18.50;99.90;;;;;;4925517;29;20227;-78
2023/07/01 08:38:51;;;;;;;6.50;5.82;;;18.50;99.90;;;;;;4917960;29;20640;-81
2023/07/01 08:41:18;;;;;;;5.72;5.20;;;18.50;99.90;;;;;;4918238;29;20235;-80
2023/07/01 08:43:50;;;;;;;5.97;5.40;;;18.50;99.90;;;;;;4918566;29;20547;-79
2023/07/01 08:46:19;;;;;;;6.00;5.40;;;18.50;99.90;;;;;;4924381;29;20192;-78
2023/07/01 08:48:46;;;;;;;9.48;5.80;;;18.50;99.90;;;;;;4903785;29;20797;-80
2023/07/01 08:51:31;;;;;;;5.93;5.32;;;18.50;99.90;;;;;;4941006;29;20183;-81
2023/07/01 08:54:03;;;;;;;5.95;5.35;;;18.60;99.90;;;;;;4927791;29;20178;-88
2023/07/01 08:56:29;;;;;;;6.45;5.45;;;18.60;99.90;;;;;;4922388;29;20178;-80
2023/07/01 08:58:55;;;;;;;6.03;5.15;;;18.60;99.90;;;;;;4938443;29;20188;-78
2023/07/01 09:01:21;;;;;;;6.20;5.60;;;18.70;99.90;;;;;;4922544;29;20187;-80
2023/07/01 09:03:48;;;;;;;6.07;5.47;;;18.70;99.90;;;;;;4940316;29;20589;-80
2023/07/01 09:06:14;;;;;;;5.40;4.90;;;18.70;99.90;;;;;;4939836;29;20186;-80
2023/07/01 09:08:40;;;;;;;5.60;5.10;;;18.80;99.90;;;;;;4939248;29;20269;-80
2023/07/01 09:11:09;;;;;;;5.00;4.60;;;18.80;99.90;;;;;;4906747;29;20655;-80
2023/07/01 09:13:37;;;;;;;5.72;5.22;;;18.80;99.90;;;;;;4905916;29;20639;-81
2023/07/01 09:16:07;;;;;;;6.95;5.18;;;18.90;99.90;;;;;;4929991;29;20183;-80
2023/07/01 09:18:33;;;;;;;4.90;4.38;;;18.90;99.90;;;;;;4939247;29;20191;-82
2023/07/01 09:20:59;;;;;;;4.78;4.38;;;18.90;99.90;;;;;;4938976;29;20191;-81
2023/07/01 09:23:29;;;;;;;6.53;4.45;;;19.00;99.90;;;;;;4903135;29;20672;-81
2023/07/01 09:26:07;;;;;;;5.32;4.60;;;19.00;99.90;;;;;;4905934;29;20668;-82
2023/07/01 09:28:34;;;;;;;4.80;4.30;;;19.10;99.90;;;;;;4921932;29;20194;-81
2023/07/01 09:31:04;;;;;;;4.70;4.30;;;19.20;99.90;;;;;;4939285;29;20287;-82
2023/07/01 09:33:30;;;;;;;4.70;4.30;;;19.10;99.90;;;;;;4921670;29;20187;-81
2023/07/01 09:36:02;;;;;;;6.18;4.72;;;19.20;99.90;;;;;;4921847;29;20246;-82
2023/07/01 09:38:29;;;;;;;4.82;4.13;;;19.20;99.90;;;;;;4938497;29;20179;-83
2023/07/01 09:40:55;;;;;;;4.78;4.25;;;19.30;99.90;;;;;;4936934;29;20656;-81
2023/07/01 09:43:33;;;;;;;4.57;4.18;;;19.30;99.90;;;;;;4937843;29;20784;-81
2023/07/01 09:45:59;;;;;;;5.15;4.65;;;19.30;99.90;;;;;;4938569;29;20257;-80
2023/07/01 09:48:24;;;;;;;5.10;4.60;;;19.30;99.90;;;;;;4921420;29;20707;-80
2023/07/01 09:50:51;;;;;;;5.93;4.07;;;19.30;99.90;;;;;;4918365;29;20632;-82
2023/07/01 09:53:24;;;;;;;4.80;4.40;;;19.30;99.90;;;;;;4918899;29;20184;-81
2023/07/01 09:55:50;;;;;;;4.63;4.22;;;19.30;99.90;;;;;;4902820;29;20188;-82
2023/07/01 09:58:16;;;;;;;4.30;3.90;;;19.30;99.90;;;;;;4918400;29;20187;-82
2023/07/01 10:00:42;;;;;;;4.80;4.32;;;19.30;99.90;;;;;;4909043;29;20523;-80
2023/07/01 10:03:08;;;;;;;3.70;3.40;;;19.40;99.90;;;;;;4938475;29;20199;-83
2023/07/01 10:05:34;;;;;;;4.22;3.10;;;19.40;99.90;;;;;;4938446;29;20258;-80
2023/07/01 10:08:01;;;;;;;2.92;2.67;;;19.40;99.90;;;;;;4921599;29;20203;-81
2023/07/01 10:10:27;;;;;;;3.40;3.10;;;19.40;99.90;;;;;;4921645;29;20234;-81
2023/07/01 10:12:56;;;;;;;3.97;3.08;;;19.40;99.90;;;;;;4921232;29;20215;-82
2023/07/01 10:15:26;;;;;;;3.30;3.00;;;19.50;99.90;;;;;;4938708;29;20183;-81
2023/07/01 10:17:52;;;;;;;3.67;3.38;;;19.40;99.90;;;;;;4940408;29;20209;-81
2023/07/01 10:20:29;;;;;;;3.95;2.70;;;19.50;99.90;;;;;;4946875;29;20183;-82
2023/07/01 10:22:56;;;;;;;3.50;2.65;;;19.40;99.90;;;;;;4913701;29;20588;-87
2023/07/01 10:25:40;;;;;;;3.33;2.22;;;19.40;99.90;;;;;;4904069;29;20187;-80
2023/07/01 10:28:13;;;;;;;3.63;2.30;;;19.40;99.90;;;;;;4948798;29;20263;-80
2023/07/01 10:30:47;;;;;;;3.70;2.47;;;19.40;99.90;;;;;;4942218;29;20216;-80
2023/07/01 10:33:35;;;;;;;3.78;2.67;;;19.50;99.90;;;;;;4927938;29;20187;-81
2023/07/01 10:36:09;;;;;;;3.20;2.90;;;19.50;99.90;;;;;;4901369;29;20231;-80
2023/07/01 10:38:36;;;;;;;5.72;3.65;;;19.50;99.90;;;;;;4931211;29;20188;-82
2023/07/01 10:41:02;;;;;;;5.68;3.63;;;19.50;99.90;;;;;;4944765;29;20247;-81
2023/07/01 10:43:33;;;;;;;5.07;3.80;;;19.60;99.90;;;;;;4929221;29;20187;-80
2023/07/01 10:46:21;;;;;;;6.32;4.00;;;19.60;99.90;;;;;;4929591;29;20179;-81
2023/07/01 10:49:02;;;;;;;4.70;3.85;;;19.70;99.90;;;;;;4941214;29;20226;-82
2023/07/01 10:51:48;;;;;;;5.53;3.40;;;19.80;99.90;;;;;;4932034;29;20187;-81
2023/07/01 10:54:29;;;;;;;4.40;3.63;;;19.80;99.90;;;;;;4900775;29;20200;-81
2023/07/01 10:57:18;;;;;;;5.35;3.80;;;19.80;99.90;;;;;;4901410;29;20206;-81
2023/07/01 10:59:44;;;;;;;5.88;3.80;;;19.90;99.90;;;;;;4935033;29;20592;-82
2023/07/01 11:02:30;;;;;;;5.68;3.60;;;19.90;99.90;;;;;;4920160;29;20207;-81
2023/07/01 11:04:56;;;;;;;5.10;4.13;;;19.90;99.90;;;;;;4937049;29;20183;-80
2023/07/01 11:07:27;;;;;;;8.95;3.85;;;19.90;99.90;;;;;;4935791;29;20226;-80
2023/07/01 11:09:54;;;;;;;5.97;3.47;;;19.80;99.90;;;;;;4908391;29;20188;-81
2023/07/01 11:12:20;;;;;;;5.55;3.40;;;19.80;99.90;;;;;;4885717;29;20180;-80
2023/07/01 11:14:46;;;;;;;5.18;3.35;;;19.70;99.90;;;;;;4903817;29;20258;-81
2023/07/01 11:17:18;;;;;;;5.07;3.60;;;19.70;99.90;;;;;;4920186;29;20683;-82
2023/07/01 11:19:45;;;;;;;6.93;4.82;;;19.60;99.90;;;;;;4937281;29;20207;-85
2023/07/01 11:22:12;;;;;;;6.20;4.10;;;19.60;99.90;;;;;;4920024;29;20246;-81
2023/07/01 11:24:38;;;;;;;6.53;4.90;;;19.60;99.90;;;;;;4920171;29;20190;-80
2023/07/01 11:27:09;;;;;;;7.53;5.22;;;19.60;99.90;;;;;;4920071;29;20513;-80
2023/07/01 11:29:36;;;;;;;9.18;5.32;;;19.60;99.90;;;;;;4919870;29;20180;-80
2023/07/01 11:32:04;;;;;;;6.63;5.22;;;19.60;99.90;;;;;;4936768;29;20182;-81
2023/07/01 11:34:30;;;;;;;9.73;6.10;;;19.70;99.90;;;;;;4919588;29;20199;-79
2023/07/01 11:36:58;;;;;;;8.05;5.82;;;19.70;99.90;;;;;;4935831;29;20198;-80
2023/07/01 11:39:30;;;;;;;8.10;5.75;;;19.70;99.90;;;;;;4904559;29;20652;-80
2023/07/01 11:41:58;;;;;;;6.45;5.53;;;19.80;99.90;;;;;;4918653;29;20253;-82
2023/07/01 11:44:25;;;;;;;9.07;5.47;;;19.80;99.90;;;;;;4936537;29;20187;-81
2023/07/01 11:46:54;;;;;;;7.20;5.93;;;19.80;99.90;;;;;;4903657;29;20219;-83
2023/07/01 11:49:25;;;;;;;11.90;6.80;;;19.80;99.90;;;;;;4936687;29;20183;-81
2023/07/01 11:51:53;;;;;;;10.93;7.00;;;19.80;99.90;;;;;;4934938;29;20269;-82
2023/07/01 11:54:44;;;;;;;8.63;7.00;;;19.80;99.90;;;;;;4918779;29;20179;-82
2023/07/01 11:57:17;;;;;;;10.07;7.43;;;19.80;99.90;;;;;;4926673;29;20190;-81
2023/07/01 11:59:46;;;;;;;10.30;8.27;;;19.70;99.90;;;;;;4911466;29;20656;-82
2023/07/01 12:02:12;;;;;;;10.48;7.57;;;19.80;99.90;;;;;;4913699;29;20517;-82
2023/07/01 12:04:38;;;;;;;10.98;8.57;;;19.80;99.90;;;;;;4906832;29;20640;-82
2023/07/01 12:07:09;;;;;;;11.13;8.27;;;19.90;99.90;;;;;;4900591;29;20214;-80
2023/07/01 12:09:36;;;;;;;11.23;8.27;;;19.90;99.90;;;;;;4900246;29;20183;-81
2023/07/01 12:12:02;;;;;;;10.48;8.15;;;20.00;99.90;;;;;;4909773;29;20692;-81
2023/07/01 12:14:29;;;;;;;13.88;8.90;;;20.00;99.90;;;;;;4918614;29;20214;-80
2023/07/01 12:16:55;;;;;;;11.52;8.50;;;20.10;99.90;;;;;;4918759;29;20202;-80
2023/07/01 12:19:23;;;;;;;16.02;9.13;;;20.10;99.90;;;;;;4934946;29;20193;-83
2023/07/01 12:21:51;;;;;;;14.70;8.73;;;20.20;99.90;;;;;;4936315;29;20246;-82
2023/07/01 12:24:29;;;;;;;12.88;9.13;;;20.20;99.90;;;;;;4915713;29;20183;-81
2023/07/01 12:26:57;;;;;;;12.35;8.65;;;20.30;99.90;;;;;;4915144;29;20287;-81
2023/07/01 12:29:24;;;;;;;12.30;8.07;;;20.40;99.90;;;;;;4917755;29;20598;-81
2023/07/01 12:31:51;;;;;;;9.35;7.38;;;20.60;99.90;;;;;;4934066;29;20273;-80
2023/07/01 12:34:17;;;;;;;10.85;6.90;;;20.60;99.90;;;;;;4901824;29;20543;-81
2023/07/01 12:36:44;;;;;;;10.20;6.78;;;20.70;99.90;;;;;;4915533;29;20205;-82
2023/07/01 12:39:11;;;;;;;13.88;6.55;;;20.70;99.90;;;;;;4927394;29;20194;-81
2023/07/01 12:41:37;;;;;;;8.48;5.93;;;20.80;99.90;;;;;;4935227;29;20341;-80
2023/07/01 12:44:04;;;;;;;9.13;6.07;;;20.80;99.90;;;;;;4917361;29;20715;-81
2023/07/01 12:46:31;;;;;;;6.90;5.45;;;20.90;99.90;;;;;;4934636;29;20238;-81